Time;durP1;ratioP1;P1;durP2;ratioP2;P2;SDS_P1;SDS_P2;PMS_P1;PMS_P2;Temp;Humidity;BMP_temperature;BMP_pressure;BME280_temperature;BME280_humidity;BME280_pressure;Samples;Min_cycle;Max_cycle;Signal;HPM_P1;HPM_P2
2022/11/14 00:02:05;;;;;;;40.03;20.52;;;6.50;99.90;;;;;;4983367;28;20103;-87
2022/11/14 00:04:31;;;;;;;48.10;21.50;;;6.50;99.90;;;;;;5015419;28;20069;-88
2022/11/14 00:06:57;;;;;;;41.42;20.52;;;6.60;99.90;;;;;;5016069;28;20053;-85
2022/11/14 00:09:27;;;;;;;47.42;20.80;;;6.60;99.90;;;;;;4980212;28;20489;-85
2022/11/14 00:11:54;;;;;;;40.47;21.05;;;6.60;99.90;;;;;;4996914;28;20062;-84
2022/11/14 00:14:19;;;;;;;39.05;18.77;;;6.60;99.90;;;;;;5014442;28;20085;-84
2022/11/14 00:16:46;;;;;;;41.17;19.60;;;6.60;99.90;;;;;;5013872;28;20097;-88
2022/11/14 00:19:12;;;;;;;35.92;17.77;;;6.70;99.90;;;;;;5014169;28;20061;-87
2022/11/14 00:21:38;;;;;;;35.10;18.23;;;6.70;99.90;;;;;;5013922;28;20054;-85
2022/11/14 00:24:04;;;;;;;36.70;17.58;;;6.70;99.90;;;;;;5013227;28;20046;-86
2022/11/14 00:26:30;;;;;;;35.42;17.42;;;6.70;99.90;;;;;;5013733;28;20129;-85
2022/11/14 00:28:56;;;;;;;35.67;18.77;;;6.70;99.90;;;;;;5014092;28;20059;-81
2022/11/14 00:31:22;;;;;;;44.72;19.23;;;6.70;99.90;;;;;;5000952;28;20060;-82
2022/11/14 00:33:48;;;;;;;41.42;18.73;;;6.70;99.90;;;;;;5013582;28;20050;-82
2022/11/14 00:36:14;;;;;;;40.67;19.35;;;6.70;99.90;;;;;;5013510;28;20045;-83
2022/11/14 00:38:40;;;;;;;39.70;19.45;;;6.80;99.90;;;;;;4996010;28;20482;-84
2022/11/14 00:41:06;;;;;;;35.58;18.48;;;6.70;99.90;;;;;;4995305;28;20060;-81
2022/11/14 00:43:32;;;;;;;35.53;18.40;;;6.80;99.90;;;;;;4996458;28;20158;-83
2022/11/14 00:45:58;;;;;;;38.67;19.08;;;6.80;99.90;;;;;;5014594;28;20058;-83
2022/11/14 00:48:23;;;;;;;40.00;18.23;;;6.80;99.90;;;;;;5013029;28;20433;-82
2022/11/14 00:50:49;;;;;;;38.10;18.38;;;6.80;99.90;;;;;;4995719;28;20069;-83
2022/11/14 00:53:15;;;;;;;34.88;17.95;;;6.80;99.90;;;;;;5013384;28;20058;-84
2022/11/14 00:55:42;;;;;;;35.30;19.15;;;6.80;99.90;;;;;;5013200;28;20145;-83
2022/11/14 00:58:08;;;;;;;43.25;19.33;;;6.80;99.90;;;;;;4980180;28;20140;-82
2022/11/14 01:00:34;;;;;;;40.95;19.65;;;6.90;99.90;;;;;;4999359;28;20050;-84
2022/11/14 01:03:00;;;;;;;39.60;20.05;;;6.90;99.90;;;;;;5016283;28;20054;-84
2022/11/14 01:05:26;;;;;;;45.30;20.58;;;6.90;99.90;;;;;;5013376;28;20050;-83
2022/11/14 01:07:53;;;;;;;38.97;19.02;;;6.90;99.90;;;;;;4994971;28;20057;-84
2022/11/14 01:10:19;;;;;;;39.92;18.25;;;6.90;99.90;;;;;;4994961;28;20050;-85
2022/11/14 01:12:46;;;;;;;36.83;19.73;;;6.90;99.90;;;;;;5012822;28;20079;-87
2022/11/14 01:15:12;;;;;;;43.47;18.98;;;6.90;99.90;;;;;;4995187;28;20132;-83
2022/11/14 01:17:38;;;;;;;39.90;20.05;;;7.00;99.90;;;;;;5012817;28;20149;-84
2022/11/14 01:20:05;;;;;;;44.47;20.90;;;7.00;99.90;;;;;;4994888;28;20492;-84
2022/11/14 01:22:31;;;;;;;40.72;21.55;;;7.00;99.90;;;;;;4995126;28;20089;-83
2022/11/14 01:24:57;;;;;;;41.00;20.33;;;7.00;99.90;;;;;;5014962;28;20058;-84
2022/11/14 01:27:24;;;;;;;39.13;19.00;;;7.00;99.90;;;;;;4995201;28;20089;-84
2022/11/14 01:29:50;;;;;;;43.67;22.50;;;7.00;99.90;;;;;;5013169;28;20125;-84
2022/11/14 01:32:15;;;;;;;38.67;20.50;;;7.00;99.90;;;;;;5013336;28;20129;-86
2022/11/14 01:34:41;;;;;;;44.70;22.90;;;7.00;99.90;;;;;;4995822;28;20605;-87
2022/11/14 01:37:08;;;;;;;43.70;21.65;;;7.00;99.90;;;;;;5012475;28;20050;-85
2022/11/14 01:39:34;;;;;;;46.97;22.70;;;7.00;99.90;;;;;;5011750;28;20058;-87
2022/11/14 01:42:00;;;;;;;47.70;23.92;;;7.00;99.90;;;;;;5012076;28;20057;-87
2022/11/14 01:44:51;;;;;;;44.20;24.25;;;7.10;99.90;;;;;;4994561;28;20058;-85
2022/11/14 01:47:25;;;;;;;45.97;23.40;;;7.00;99.90;;;;;;5012422;28;20498;-86
2022/11/14 01:49:54;;;;;;;49.85;26.23;;;7.00;99.90;;;;;;5011613;28;20462;-83
2022/11/14 01:52:29;;;;;;;50.88;27.40;;;7.00;99.90;;;;;;5012079;28;20413;-85
2022/11/14 01:55:00;;;;;;;47.30;26.58;;;7.00;99.90;;;;;;4994212;28;20141;-85
2022/11/14 01:57:52;;;;;;;55.08;27.27;;;7.00;99.90;;;;;;5017617;28;20085;-84
2022/11/14 02:00:18;;;;;;;51.97;28.45;;;7.00;99.90;;;;;;4992921;28;20567;-86
2022/11/14 02:02:44;;;;;;;48.70;26.23;;;7.00;99.90;;;;;;4979023;28;20140;-87
2022/11/14 02:05:14;;;;;;;50.20;27.83;;;7.00;99.90;;;;;;5011669;28;20049;-82
2022/11/14 02:07:41;;;;;;;52.08;29.00;;;7.00;99.90;;;;;;4994270;28;20065;-85
2022/11/14 02:10:16;;;;;;;50.67;28.08;;;7.00;99.90;;;;;;4994977;28;20113;-85
2022/11/14 02:12:44;;;;;;;52.15;28.73;;;7.00;99.90;;;;;;5013751;28;20065;-83
2022/11/14 02:15:10;;;;;;;52.20;27.40;;;7.00;99.90;;;;;;5014066;28;20050;-85
2022/11/14 02:17:36;;;;;;;58.85;31.42;;;7.00;99.90;;;;;;5013055;28;20049;-83
2022/11/14 02:20:11;;;;;;;59.05;31.15;;;7.00;99.90;;;;;;5013174;28;20545;-83
2022/11/14 02:22:37;;;;;;;;;;;7.00;99.90;;;;;;5014194;28;20132;-82
2022/11/14 02:25:04;;;;;;;62.33;31.23;;;7.00;99.90;;;;;;4994703;28;19922;-85
2022/11/14 02:27:31;;;;;;;59.42;31.27;;;7.00;99.90;;;;;;4994470;28;20136;-83
2022/11/14 02:30:13;;;;;;;60.70;32.65;;;7.00;99.90;;;;;;4993600;28;20054;-82
2022/11/14 02:32:39;;;;;;;55.67;31.10;;;7.00;99.90;;;;;;5011841;28;20394;-84
2022/11/14 02:35:05;;;;;;;59.08;32.10;;;7.00;99.90;;;;;;4993468;28;20546;-86
2022/11/14 02:37:31;;;;;;;60.92;31.88;;;7.00;99.90;;;;;;5011544;28;20402;-84
2022/11/14 02:39:57;;;;;;;55.00;31.27;;;7.00;99.90;;;;;;5011362;28;20054;-84
2022/11/14 02:42:23;;;;;;;59.85;33.40;;;7.00;99.90;;;;;;4993183;28;20140;-83
2022/11/14 02:44:49;;;;;;;58.30;31.35;;;7.00;99.90;;;;;;5012387;28;20046;-83
2022/11/14 02:47:15;;;;;;;63.13;34.53;;;7.00;99.90;;;;;;5011354;28;20129;-84
2022/11/14 02:49:41;;;;;;;61.15;34.13;;;7.00;99.90;;;;;;5013178;28;20553;-85
2022/11/14 02:52:07;;;;;;;62.80;33.63;;;7.00;99.90;;;;;;5015477;28;20082;-85
2022/11/14 02:54:32;;;;;;;56.25;32.50;;;7.00;99.90;;;;;;4993940;28;20069;-82
2022/11/14 02:56:58;;;;;;;59.05;31.33;;;7.00;99.90;;;;;;4993710;28;20512;-83
2022/11/14 02:59:24;;;;;;;62.10;33.22;;;7.00;99.90;;;;;;5011475;28;20121;-85
2022/11/14 03:01:50;;;;;;;58.60;31.05;;;7.00;99.90;;;;;;4993706;28;20490;-84
2022/11/14 03:04:16;;;;;;;58.80;33.40;;;7.00;99.90;;;;;;4993461;28;20057;-85
2022/11/14 03:06:42;;;;;;;61.28;33.30;;;7.00;99.90;;;;;;4993773;28;20056;-85
2022/11/14 03:09:07;;;;;;;58.90;32.08;;;6.90;99.90;;;;;;5011495;28;20053;-86
2022/11/14 03:11:33;;;;;;;59.08;31.50;;;6.90;99.90;;;;;;4994568;28;20050;-83
2022/11/14 03:13:59;;;;;;;62.65;33.88;;;6.90;99.90;;;;;;4996067;28;20060;-83
2022/11/14 03:16:25;;;;;;;63.85;33.70;;;6.90;99.90;;;;;;5011324;28;20060;-84
2022/11/14 03:18:51;;;;;;;66.00;35.10;;;6.90;99.90;;;;;;5011096;28;20498;-83
2022/11/14 03:21:19;;;;;;;68.38;35.60;;;6.90;99.90;;;;;;5010911;28;20498;-86
2022/11/14 03:23:46;;;;;;;63.75;34.05;;;6.90;99.90;;;;;;4993284;28;20064;-86
2022/11/14 03:26:13;;;;;;;68.13;34.10;;;6.90;99.90;;;;;;5011472;28;20100;-85
2022/11/14 03:28:40;;;;;;;63.38;32.95;;;7.00;99.90;;;;;;5011157;28;20050;-82
2022/11/14 03:31:09;;;;;;;63.00;35.60;;;7.00;99.90;;;;;;4994032;28;20058;-84
2022/11/14 03:33:35;;;;;;;66.93;34.17;;;7.00;99.90;;;;;;5001606;28;20057;-83
2022/11/14 03:36:02;;;;;;;64.28;34.50;;;7.00;99.90;;;;;;4995269;28;20054;-84
2022/11/14 03:38:28;;;;;;;64.30;34.42;;;7.00;99.90;;;;;;4992780;28;20065;-83
2022/11/14 03:40:56;;;;;;;64.18;32.63;;;7.00;99.90;;;;;;4996361;28;20050;-84
2022/11/14 03:43:22;;;;;;;65.85;33.33;;;7.00;99.90;;;;;;5014441;28;20132;-84
2022/11/14 03:45:48;;;;;;;61.58;34.60;;;7.10;99.90;;;;;;5015375;28;20465;-84
2022/11/14 03:48:14;;;;;;;66.45;34.83;;;7.10;99.90;;;;;;5014290;28;20053;-83
2022/11/14 03:50:41;;;;;;;66.03;34.05;;;7.10;99.90;;;;;;5013860;28;20100;-83
2022/11/14 03:53:07;;;;;;;67.65;33.33;;;7.10;99.90;;;;;;4996769;28;20493;-84
2022/11/14 03:55:33;;;;;;;62.47;33.40;;;7.10;99.90;;;;;;5015907;28;20124;-83
2022/11/14 03:57:59;;;;;;;62.17;32.85;;;7.10;99.90;;;;;;5019415;28;20053;-83
2022/11/14 04:00:27;;;;;;;56.72;32.05;;;7.10;99.90;;;;;;5000110;28;20061;-83
2022/11/14 04:02:56;;;;;;;56.50;31.73;;;7.10;99.90;;;;;;4996058;28;20140;-84
2022/11/14 04:05:23;;;;;;;66.28;33.10;;;7.10;99.90;;;;;;4996166;28;20072;-84
2022/11/14 04:07:49;;;;;;;63.95;34.17;;;7.10;99.90;;;;;;5014170;28;20054;-83
2022/11/14 04:10:15;;;;;;;64.63;33.00;;;7.10;99.90;;;;;;5013766;28;20053;-83
2022/11/14 04:12:46;;;;;;;63.08;33.53;;;7.10;99.90;;;;;;4996260;28;20505;-83
2022/11/14 04:15:12;;;;;;;65.47;35.67;;;7.10;99.90;;;;;;4996638;28;20060;-84
2022/11/14 04:17:37;;;;;;;66.47;33.88;;;7.00;99.90;;;;;;4997463;28;20054;-84
2022/11/14 04:20:03;;;;;;;62.35;33.42;;;7.00;99.90;;;;;;4996441;28;20077;-81
2022/11/14 04:22:29;;;;;;;62.58;33.60;;;7.00;99.90;;;;;;5016290;28;20108;-86
2022/11/14 04:24:55;;;;;;;65.28;34.47;;;7.00;99.90;;;;;;4992430;28;20066;-82
2022/11/14 04:27:22;;;;;;;59.42;32.42;;;7.00;99.90;;;;;;4994087;28;20140;-86
2022/11/14 04:29:48;;;;;;;66.55;32.05;;;7.00;99.90;;;;;;4976056;28;20141;-85
2022/11/14 04:32:14;;;;;;;60.40;32.45;;;7.00;99.90;;;;;;4994357;28;20131;-83
2022/11/14 04:34:40;;;;;;;62.63;35.65;;;7.00;99.90;;;;;;4994638;28;20085;-83
2022/11/14 04:37:06;;;;;;;64.15;33.65;;;7.00;99.90;;;;;;4976620;28;20506;-82
2022/11/14 04:39:31;;;;;;;62.72;33.65;;;7.00;99.90;;;;;;4994625;28;20120;-83
2022/11/14 04:41:57;;;;;;;59.80;33.15;;;7.00;99.90;;;;;;4997572;28;20442;-84
2022/11/14 04:44:23;;;;;;;57.63;31.75;;;7.00;99.90;;;;;;4997718;28;20076;-84
2022/11/14 04:46:49;;;;;;;55.88;32.05;;;7.00;99.90;;;;;;4999897;28;20088;-83
2022/11/14 04:49:16;;;;;;;63.20;34.30;;;6.90;99.90;;;;;;4994386;28;20059;-85
2022/11/14 04:51:42;;;;;;;56.25;32.58;;;6.90;99.90;;;;;;4978360;28;20047;-84
2022/11/14 04:54:08;;;;;;;63.00;32.60;;;6.90;99.90;;;;;;4977838;28;20080;-83
2022/11/14 04:56:34;;;;;;;59.00;31.50;;;6.90;99.90;;;;;;4996143;28;20467;-84
2022/11/14 04:59:00;;;;;;;63.42;34.60;;;6.90;99.90;;;;;;4978183;28;20466;-84
2022/11/14 05:01:26;;;;;;;60.67;33.05;;;7.00;99.90;;;;;;4977903;28;20487;-84
2022/11/14 05:03:52;;;;;;;65.72;33.35;;;6.90;99.90;;;;;;4977729;28;20058;-83
2022/11/14 05:06:18;;;;;;;59.75;32.38;;;7.00;99.90;;;;;;4998079;28;20042;-84
2022/11/14 05:08:44;;;;;;;56.70;31.65;;;7.00;99.90;;;;;;4997528;28;20076;-83
2022/11/14 05:11:15;;;;;;;58.42;30.80;;;7.00;99.90;;;;;;5000060;28;20147;-83
2022/11/14 05:13:41;;;;;;;57.45;32.25;;;6.90;99.90;;;;;;4999301;28;20057;-84
2022/11/14 05:16:07;;;;;;;57.60;31.95;;;6.90;99.90;;;;;;4968510;28;20058;-84
2022/11/14 05:18:33;;;;;;;57.17;33.15;;;6.90;99.90;;;;;;4987391;28;20085;-84
2022/11/14 05:21:00;;;;;;;65.50;35.33;;;6.90;99.90;;;;;;5004336;28;20054;-82
2022/11/14 05:23:26;;;;;;;60.63;33.33;;;6.90;99.90;;;;;;4980348;28;20054;-84
2022/11/14 05:26:00;;;;;;;61.92;32.28;;;6.90;99.90;;;;;;4992267;28;20119;-81
2022/11/14 05:28:26;;;;;;;57.03;31.93;;;6.90;99.90;;;;;;4998108;28;20461;-81
2022/11/14 05:30:51;;;;;;;65.93;33.58;;;6.90;99.90;;;;;;5017637;28;20046;-82
2022/11/14 05:33:17;;;;;;;60.08;32.28;;;6.90;99.90;;;;;;5020828;28;20049;-83
2022/11/14 05:35:43;;;;;;;65.05;34.42;;;6.90;99.90;;;;;;4999621;28;20056;-82
2022/11/14 05:38:09;;;;;;;62.88;32.47;;;6.80;99.90;;;;;;4995206;28;20089;-84
2022/11/14 05:40:36;;;;;;;68.43;38.17;;;6.90;99.90;;;;;;4981243;28;20407;-82
2022/11/14 05:43:02;;;;;;;66.10;36.65;;;6.80;99.90;;;;;;4978675;28;20041;-82
2022/11/14 05:45:29;;;;;;;63.33;35.20;;;6.80;99.90;;;;;;5011928;28;20060;-83
2022/11/14 05:47:55;;;;;;;60.28;36.08;;;6.90;99.90;;;;;;5011765;28;20054;-82
2022/11/14 05:50:21;;;;;;;62.35;35.85;;;6.80;99.90;;;;;;5013732;28;20402;-82
2022/11/14 05:52:47;;;;;;;67.70;36.97;;;6.80;99.90;;;;;;4996692;28;20053;-83
2022/11/14 05:55:13;;;;;;;65.28;36.72;;;6.80;99.90;;;;;;5012390;28;20053;-87
2022/11/14 05:57:39;;;;;;;67.43;38.60;;;6.80;99.90;;;;;;5011581;28;20056;-82
2022/11/14 06:00:06;;;;;;;65.97;38.38;;;6.80;99.90;;;;;;5011754;28;20117;-83
2022/11/14 06:02:32;;;;;;;64.40;36.80;;;6.80;99.90;;;;;;4994007;28;20050;-83
2022/11/14 06:04:58;;;;;;;71.47;38.92;;;6.80;99.90;;;;;;5012499;28;20096;-82
2022/11/14 06:07:24;;;;;;;65.05;36.70;;;6.80;99.90;;;;;;5011426;28;20510;-83
2022/11/14 06:09:49;;;;;;;64.60;35.17;;;6.80;99.90;;;;;;4994720;28;20049;-83
2022/11/14 06:12:15;;;;;;;71.95;38.22;;;6.80;99.90;;;;;;4995841;28;20088;-82
2022/11/14 06:14:41;;;;;;;64.97;35.40;;;6.80;99.90;;;;;;5011500;28;20045;-82
2022/11/14 06:17:07;;;;;;;66.75;36.53;;;6.80;99.90;;;;;;5011853;28;20533;-83
2022/11/14 06:19:33;;;;;;;63.15;36.10;;;6.80;99.90;;;;;;5011849;28;20115;-82
2022/11/14 06:21:59;;;;;;;63.88;34.55;;;6.80;99.90;;;;;;5011229;28;20042;-83
2022/11/14 06:24:24;;;;;;;67.93;39.20;;;6.80;99.90;;;;;;4977004;28;20068;-86
2022/11/14 06:26:50;;;;;;;62.65;35.92;;;6.80;99.90;;;;;;5011539;28;20046;-82
2022/11/14 06:29:16;;;;;;;63.47;35.10;;;6.80;99.90;;;;;;5011360;28;20116;-84
2022/11/14 06:31:43;;;;;;;61.80;34.58;;;6.80;99.90;;;;;;4993530;28;20513;-84
2022/11/14 06:34:11;;;;;;;60.60;33.03;;;6.80;99.90;;;;;;4993746;28;20061;-84
2022/11/14 06:36:36;;;;;;;63.85;35.08;;;6.70;99.90;;;;;;4994028;28;20406;-85
2022/11/14 06:39:02;;;;;;;63.17;33.55;;;6.70;99.90;;;;;;4995202;28;20062;-85
2022/11/14 06:41:28;;;;;;;61.20;34.67;;;6.70;99.90;;;;;;4994109;28;20052;-85
2022/11/14 06:43:54;;;;;;;61.53;35.15;;;6.70;99.90;;;;;;4994227;28;20073;-84
2022/11/14 06:46:21;;;;;;;65.72;35.40;;;6.70;99.90;;;;;;4994065;28;20490;-85
2022/11/14 06:48:48;;;;;;;61.22;32.80;;;6.60;99.90;;;;;;4993674;28;20065;-83
2022/11/14 06:51:16;;;;;;;57.47;33.60;;;6.60;99.90;;;;;;5011229;28;20411;-84
2022/11/14 06:53:42;;;;;;;66.22;32.35;;;6.60;99.90;;;;;;4994066;28;20062;-84
2022/11/14 06:56:10;;;;;;;63.33;33.20;;;6.60;99.90;;;;;;5012597;28;20041;-83
2022/11/14 06:58:40;;;;;;;64.53;34.03;;;6.60;99.90;;;;;;4996377;28;20074;-85
2022/11/14 07:01:06;;;;;;;64.68;35.05;;;6.50;99.90;;;;;;4994225;28;20473;-85
2022/11/14 07:03:33;;;;;;;63.17;34.55;;;6.50;99.90;;;;;;4993496;28;20053;-83
2022/11/14 07:06:03;;;;;;;62.33;33.22;;;6.50;99.90;;;;;;5011575;28;20046;-84
2022/11/14 07:08:30;;;;;;;67.90;34.58;;;6.50;99.90;;;;;;5011300;28;20041;-84
2022/11/14 07:11:10;;;;;;;57.53;32.90;;;6.50;99.90;;;;;;5010970;28;20058;-83
2022/11/14 07:13:37;;;;;;;63.63;34.15;;;6.50;99.90;;;;;;5012400;28;20061;-83
2022/11/14 07:16:03;;;;;;;67.18;34.17;;;6.50;99.90;;;;;;5014646;28;20050;-84
2022/11/14 07:18:31;;;;;;;67.30;35.00;;;6.50;99.90;;;;;;4997125;28;20061;-85
2022/11/14 07:20:59;;;;;;;67.65;35.58;;;6.50;99.90;;;;;;4983023;28;20054;-86
2022/11/14 07:23:25;;;;;;;63.90;34.10;;;6.60;99.90;;;;;;5016155;28;20061;-83
2022/11/14 07:25:51;;;;;;;66.90;35.45;;;6.50;99.90;;;;;;4996936;28;20124;-83
2022/11/14 07:28:17;;;;;;;66.43;35.42;;;6.50;99.90;;;;;;5014727;28;20085;-84
2022/11/14 07:30:43;;;;;;;70.45;37.03;;;6.50;99.90;;;;;;4997296;28;20792;-83
2022/11/14 07:33:10;;;;;;;71.78;35.47;;;6.50;99.90;;;;;;4996653;28;20089;-84
2022/11/14 07:35:38;;;;;;;71.00;35.33;;;6.50;99.90;;;;;;4998154;28;20057;-83
2022/11/14 07:38:04;;;;;;;64.63;35.10;;;6.50;99.90;;;;;;5019265;28;20057;-85
2022/11/14 07:40:30;;;;;;;69.57;36.15;;;6.50;99.90;;;;;;5018764;28;20050;-84
2022/11/14 07:43:00;;;;;;;75.38;36.92;;;6.50;99.90;;;;;;5000835;28;20135;-84
2022/11/14 07:45:27;;;;;;;69.28;35.03;;;6.50;99.90;;;;;;5014402;28;20046;-83
2022/11/14 07:47:55;;;;;;;63.00;34.28;;;6.50;99.90;;;;;;5015884;28;20069;-83
2022/11/14 07:50:21;;;;;;;69.93;35.72;;;6.50;99.90;;;;;;4996912;28;20100;-86
2022/11/14 07:52:52;;;;;;;69.00;34.65;;;6.50;99.90;;;;;;5014690;28;20096;-84
2022/11/14 07:55:18;;;;;;;68.38;35.60;;;6.50;99.90;;;;;;5014967;28;20516;-83
2022/11/14 07:57:45;;;;;;;69.68;36.38;;;6.60;99.90;;;;;;5016231;28;20089;-85
2022/11/14 08:00:11;;;;;;;70.45;34.97;;;6.50;99.90;;;;;;4997591;28;20049;-84
2022/11/14 08:02:37;;;;;;;71.78;36.83;;;6.60;99.90;;;;;;5014471;28;20045;-82
2022/11/14 08:05:03;;;;;;;67.85;33.47;;;6.60;99.90;;;;;;5013793;28;20107;-82
2022/11/14 08:07:29;;;;;;;68.15;36.45;;;6.60;99.90;;;;;;5014466;28;20046;-84
2022/11/14 08:09:55;;;;;;;68.88;36.17;;;6.60;99.90;;;;;;5013991;28;20096;-83
2022/11/14 08:12:21;;;;;;;69.55;34.97;;;6.60;99.90;;;;;;5014928;28;20125;-82
2022/11/14 08:14:47;;;;;;;72.63;35.67;;;6.70;99.90;;;;;;4998237;28;20069;-85
2022/11/14 08:17:13;;;;;;;69.38;34.80;;;6.60;99.90;;;;;;5014944;28;20042;-81
2022/11/14 08:19:39;;;;;;;70.20;35.78;;;6.70;99.90;;;;;;5014526;28;20497;-83
2022/11/14 08:22:06;;;;;;;66.50;35.28;;;6.70;99.90;;;;;;4980968;28;20196;-84
2022/11/14 08:24:35;;;;;;;65.57;33.70;;;6.60;99.90;;;;;;5014156;28;20058;-84
2022/11/14 08:27:01;;;;;;;69.07;34.55;;;6.60;99.90;;;;;;5014816;28;20429;-83
2022/11/14 08:29:27;;;;;;;66.05;33.53;;;6.60;99.90;;;;;;5015631;28;20058;-85
2022/11/14 08:31:53;;;;;;;69.45;34.95;;;6.60;99.90;;;;;;5002996;28;20058;-83
2022/11/14 08:34:21;;;;;;;66.72;34.08;;;6.60;99.90;;;;;;5000560;28;20050;-82
2022/11/14 08:36:47;;;;;;;77.90;34.40;;;6.60;99.90;;;;;;4983901;28;20081;-83
2022/11/14 08:39:13;;;;;;;68.53;35.03;;;6.60;99.90;;;;;;4998309;28;20145;-84
2022/11/14 08:41:38;;;;;;;70.10;34.72;;;6.60;99.90;;;;;;5017762;28;20532;-83
2022/11/14 08:44:04;;;;;;;65.47;33.00;;;6.60;99.90;;;;;;5014637;28;20498;-84
2022/11/14 08:46:30;;;;;;;71.68;36.33;;;6.60;99.90;;;;;;4997425;28;20081;-85
2022/11/14 08:48:56;;;;;;;64.20;34.47;;;6.60;99.90;;;;;;5017008;28;20541;-82
2022/11/14 08:51:22;;;;;;;68.15;36.28;;;6.60;99.90;;;;;;4997594;28;20046;-84
2022/11/14 08:53:50;;;;;;;67.93;33.72;;;6.60;99.90;;;;;;5015088;28;20064;-82
2022/11/14 08:56:16;;;;;;;64.40;33.10;;;6.60;99.90;;;;;;4996265;28;20053;-83
2022/11/14 08:58:42;;;;;;;67.32;33.90;;;6.60;99.90;;;;;;4979759;28;20046;-84
2022/11/14 09:01:08;;;;;;;68.30;34.00;;;6.60;99.90;;;;;;4998004;28;20058;-83
2022/11/14 09:03:34;;;;;;;75.20;34.90;;;6.60;99.90;;;;;;5012951;28;20057;-84
2022/11/14 09:06:01;;;;;;;61.25;31.95;;;6.60;99.90;;;;;;5013418;28;20030;-83
2022/11/14 09:08:27;;;;;;;61.10;32.60;;;6.70;99.90;;;;;;4995946;28;20203;-83
2022/11/14 09:10:54;;;;;;;66.25;33.80;;;6.70;99.90;;;;;;4995322;28;20064;-82
2022/11/14 09:13:21;;;;;;;70.30;35.05;;;6.70;99.90;;;;;;5011766;28;20457;-82
2022/11/14 09:15:47;;;;;;;65.55;32.45;;;6.70;99.90;;;;;;4995931;28;20045;-83
2022/11/14 09:18:14;;;;;;;63.22;30.35;;;6.80;99.90;;;;;;5014710;28;20120;-83
2022/11/14 09:20:40;;;;;;;61.25;31.45;;;6.80;99.90;;;;;;4995503;28;20042;-83
2022/11/14 09:23:06;;;;;;;65.10;34.80;;;6.90;99.90;;;;;;5000632;28;20104;-87
2022/11/14 09:25:32;;;;;;;63.67;33.22;;;7.00;99.90;;;;;;5016125;28;20054;-83
2022/11/14 09:28:03;;;;;;;67.85;34.80;;;7.00;99.90;;;;;;4996179;28;20061;-84
2022/11/14 09:30:29;;;;;;;63.67;34.00;;;7.10;99.90;;;;;;4995456;28;20406;-84
2022/11/14 09:33:00;;;;;;;54.20;32.05;;;7.20;99.90;;;;;;4997109;28;20482;-82
2022/11/14 09:35:26;;;;;;;63.22;32.72;;;7.20;99.90;;;;;;5016707;28;20085;-84
2022/11/14 09:38:07;;;;;;;62.85;32.92;;;7.10;99.90;;;;;;5018763;28;20046;-83
2022/11/14 09:40:59;;;;;;;59.88;32.50;;;7.20;99.90;;;;;;5014592;28;20060;-86
2022/11/14 09:44:02;;;;;;;57.13;31.88;;;7.20;99.90;;;;;;4991613;28;20038;-83
2022/11/14 09:46:37;;;;;;;60.28;32.47;;;7.30;99.90;;;;;;4994970;28;20457;-84
2022/11/14 09:49:10;;;;;;;59.90;32.60;;;7.20;99.90;;;;;;5012560;28;20053;-84
2022/11/14 09:51:48;;;;;;;58.67;30.77;;;7.20;99.90;;;;;;5010692;28;20053;-82
2022/11/14 09:54:31;;;;;;;59.97;31.83;;;7.20;99.90;;;;;;5011823;28;20061;-85
2022/11/14 09:56:57;;;;;;;60.28;31.83;;;7.20;99.90;;;;;;4994396;28;20058;-85
2022/11/14 09:59:23;;;;;;;60.78;31.55;;;7.40;99.90;;;;;;5011482;28;20069;-86
2022/11/14 10:02:15;;;;;;;60.10;31.33;;;7.70;99.90;;;;;;5011867;28;20045;-87
2022/11/14 10:05:02;;;;;;;57.97;34.55;;;8.00;99.90;;;;;;5012121;28;20050;-85
2022/11/14 10:08:02;;;;;;;58.75;31.42;;;8.10;99.90;;;;;;5012113;28;20058;-84
2022/11/14 10:10:32;;;;;;;57.70;30.40;;;8.40;99.90;;;;;;4994380;28;20406;-82
2022/11/14 10:13:10;;;;;;;60.22;32.30;;;8.60;99.90;;;;;;4996855;28;20049;-85
2022/11/14 10:15:44;;;;;;;50.55;28.80;;;8.70;99.90;;;;;;4997031;28;20054;-82
2022/11/14 10:18:49;;;;;;;56.45;30.08;;;8.70;99.90;;;;;;4994381;28;20057;-82
2022/11/14 10:21:26;;;;;;;51.35;28.85;;;8.60;99.90;;;;;;4971011;28;20057;-87
2022/11/14 10:24:25;;;;;;;55.55;31.10;;;8.70;99.90;;;;;;5011550;28;20565;-84
2022/11/14 10:27:00;;;;;;;53.60;29.58;;;8.70;99.90;;;;;;4980126;28;20064;-86
2022/11/14 10:29:54;;;;;;;50.40;30.42;;;8.60;99.90;;;;;;5011504;28;20054;-84
2022/11/14 10:32:35;;;;;;;52.33;28.95;;;8.50;99.90;;;;;;5011433;28;20054;-82
2022/11/14 10:35:14;;;;;;;52.60;28.10;;;8.50;99.90;;;;;;4993781;28;20061;-83
2022/11/14 10:38:02;;;;;;;51.58;30.10;;;8.50;99.90;;;;;;4993892;28;20437;-84
2022/11/14 10:40:50;;;;;;;51.38;30.45;;;8.40;99.90;;;;;;4977983;28;20053;-84
2022/11/14 10:43:35;;;;;;;50.05;27.90;;;8.40;99.90;;;;;;4993895;28;20061;-84
2022/11/14 10:46:20;;;;;;;52.03;29.83;;;8.40;99.90;;;;;;4993885;28;20069;-83
2022/11/14 10:48:51;;;;;;;52.97;28.70;;;8.50;99.90;;;;;;5013478;28;20081;-83
2022/11/14 10:51:43;;;;;;;52.63;29.83;;;8.50;99.90;;;;;;5015339;28;20054;-83
2022/11/14 10:54:09;;;;;;;52.13;28.48;;;8.60;99.90;;;;;;5011477;28;20052;-87
2022/11/14 10:56:48;;;;;;;51.17;28.83;;;8.70;99.90;;;;;;5011136;28;20054;-86
2022/11/14 10:59:14;;;;;;;50.13;29.30;;;8.70;99.90;;;;;;4993855;28;20406;-84
2022/11/14 11:01:42;;;;;;;49.80;29.58;;;8.80;99.90;;;;;;5011501;28;20133;-86
2022/11/14 11:04:26;;;;;;;54.60;31.25;;;8.70;99.90;;;;;;5011154;28;20076;-82
2022/11/14 11:06:55;;;;;;;51.45;29.38;;;8.70;99.90;;;;;;4992877;28;20100;-85
2022/11/14 11:12:18;;;;;;;47.80;29.00;;;8.90;99.90;;;;;;5011678;28;20096;-84
2022/11/14 11:15:06;;;;;;;51.85;27.95;;;9.00;99.90;;;;;;5012297;28;20062;-84
2022/11/14 11:17:33;;;;;;;52.70;30.33;;;8.90;99.90;;;;;;4979615;28;20054;-83
2022/11/14 11:20:25;;;;;;;50.17;28.77;;;8.90;99.90;;;;;;5012567;28;20509;-83
2022/11/14 11:23:11;;;;;;;45.35;27.15;;;8.80;99.90;;;;;;4996328;28;20452;-85
2022/11/14 11:25:39;;;;;;;45.38;27.23;;;8.80;99.90;;;;;;4983739;28;20069;-81
2022/11/14 11:28:07;;;;;;;43.47;26.02;;;8.80;99.90;;;;;;4994431;28;20053;-86
2022/11/14 11:30:33;;;;;;;46.78;27.35;;;8.70;99.90;;;;;;4994350;28;20065;-81
2022/11/14 11:33:27;;;;;;;43.20;28.48;;;8.80;99.90;;;;;;4993871;28;20513;-83
2022/11/14 11:36:00;;;;;;;48.78;29.00;;;8.90;99.90;;;;;;5012309;28;20402;-86
2022/11/14 11:38:29;;;;;;;44.75;25.27;;;8.80;99.90;;;;;;4998693;28;20390;-83
2022/11/14 11:41:19;;;;;;;45.58;27.42;;;8.90;99.90;;;;;;4996465;28;20054;-83
2022/11/14 11:44:00;;;;;;;49.67;27.92;;;9.00;99.90;;;;;;5012207;28;20054;-84
2022/11/14 11:46:47;;;;;;;41.85;26.08;;;9.50;99.90;;;;;;4995693;28;20128;-87
2022/11/14 11:49:32;;;;;;;46.03;27.60;;;9.80;99.90;;;;;;5015437;28;20053;-86
2022/11/14 11:52:09;;;;;;;40.45;25.63;;;10.20;99.90;;;;;;5013228;28;20148;-84
2022/11/14 11:55:02;;;;;;;44.13;25.75;;;10.40;99.90;;;;;;4997424;28;20100;-85
2022/11/14 11:57:35;;;;;;;42.35;25.42;;;10.40;99.90;;;;;;4995264;28;20140;-86
2022/11/14 12:00:22;;;;;;;41.85;26.23;;;10.10;99.90;;;;;;5012986;28;20061;-81
2022/11/14 12:02:51;;;;;;;42.58;26.45;;;9.90;99.90;;;;;;5000241;28;20192;-84
2022/11/14 12:05:29;;;;;;;45.20;27.73;;;9.80;99.90;;;;;;4998690;28;20061;-83
2022/11/14 12:08:08;;;;;;;42.40;26.52;;;9.70;99.90;;;;;;5015940;28;20068;-87
2022/11/14 12:10:39;;;;;;;43.58;27.50;;;9.70;99.90;;;;;;4997566;28;20075;-83
2022/11/14 12:13:26;;;;;;;44.00;26.58;;;9.50;99.90;;;;;;5015412;28;20046;-85
2022/11/14 12:16:19;;;;;;;42.53;27.02;;;9.30;99.90;;;;;;5016828;28;20061;-88
2022/11/14 12:19:07;;;;;;;43.67;26.55;;;9.30;99.90;;;;;;4999262;28;20129;-84
2022/11/14 12:21:55;;;;;;;45.38;27.42;;;9.40;99.90;;;;;;5015245;28;20052;-84
2022/11/14 12:24:51;;;;;;;43.38;24.50;;;9.40;99.90;;;;;;5016266;28;20053;-87
2022/11/14 12:27:43;;;;;;;45.55;27.85;;;9.60;99.90;;;;;;5015992;28;20053;-85
2022/11/14 12:30:21;;;;;;;42.67;25.75;;;9.90;99.90;;;;;;5016302;28;20142;-86
2022/11/14 12:32:56;;;;;;;50.60;32.22;;;10.90;99.90;;;;;;5020309;28;20054;-86
2022/11/14 12:35:29;;;;;;;44.53;28.15;;;12.30;99.90;;;;;;5014120;28;20070;-82
2022/11/14 12:37:57;;;;;;;41.05;24.55;;;13.30;99.90;;;;;;4996445;28;20061;-82
2022/11/14 12:40:38;;;;;;;43.97;26.17;;;14.20;99.90;;;;;;5013908;28;20506;-81
2022/11/14 12:43:22;;;;;;;36.38;24.52;;;15.00;99.90;;;;;;4996769;28;20444;-82
2022/11/14 12:45:51;;;;;;;38.03;25.17;;;15.50;99.90;;;;;;5014618;28;20049;-84
2022/11/14 12:48:26;;;;;;;38.50;24.60;;;15.70;99.90;;;;;;4995895;28;20054;-83
2022/11/14 12:50:52;;;;;;;38.47;23.85;;;15.90;99.60;;;;;;5013633;28;20050;-82
2022/11/14 12:53:36;;;;;;;37.83;24.02;;;15.90;99.90;;;;;;4995757;28;20054;-83